sensor_id;sensor_type;location;lat;lon;timestamp;P1;durP1;ratioP1;P2;durP2;ratioP2
49444;SDS011;35323;43.080;-81.378;2023-04-25T00:01:50;3.33;;;1.88;;
49444;SDS011;35323;43.080;-81.378;2023-04-25T00:04:21;3.83;;;2.03;;
49444;SDS011;35323;43.080;-81.378;2023-04-25T00:06:50;1.10;;;0.98;;
49444;SDS011;35323;43.080;-81.378;2023-04-25T00:09:19;1.33;;;1.25;;
49444;SDS011;35323;43.080;-81.378;2023-04-25T00:11:47;2.50;;;1.27;;
49444;SDS011;35323;43.080;-81.378;2023-04-25T00:14:15;4.32;;;1.38;;
49444;SDS011;35323;43.080;-81.378;2023-04-25T00:16:43;1.63;;;1.50;;
49444;SDS011;35323;43.080;-81.378;2023-04-25T00:19:11;1.33;;;1.10;;
49444;SDS011;35323;43.080;-81.378;2023-04-25T00:21:40;3.17;;;1.73;;
49444;SDS011;35323;43.080;-81.378;2023-04-25T00:24:08;1.95;;;1.35;;
49444;SDS011;35323;43.080;-81.378;2023-04-25T00:26:35;1.33;;;1.10;;
49444;SDS011;35323;43.080;-81.378;2023-04-25T00:29:03;1.40;;;1.30;;
49444;SDS011;35323;43.080;-81.378;2023-04-25T00:31:31;1.20;;;1.10;;
49444;SDS011;35323;43.080;-81.378;2023-04-25T00:33:59;1.27;;;1.13;;
49444;SDS011;35323;43.080;-81.378;2023-04-25T00:36:27;2.50;;;1.77;;
49444;SDS011;35323;43.080;-81.378;2023-04-25T00:38:55;1.67;;;1.42;;
49444;SDS011;35323;43.080;-81.378;2023-04-25T00:41:23;1.50;;;1.35;;
49444;SDS011;35323;43.080;-81.378;2023-04-25T00:43:52;2.53;;;1.60;;
49444;SDS011;35323;43.080;-81.378;2023-04-25T00:46:21;1.38;;;1.25;;
49444;SDS011;35323;43.080;-81.378;2023-04-25T00:48:48;1.40;;;1.30;;
49444;SDS011;35323;43.080;-81.378;2023-04-25T00:51:17;1.23;;;1.20;;
49444;SDS011;35323;43.080;-81.378;2023-04-25T00:53:46;1.63;;;1.52;;
49444;SDS011;35323;43.080;-81.378;2023-04-25T00:56:15;2.65;;;2.38;;
49444;SDS011;35323;43.080;-81.378;2023-04-25T00:58:44;1.33;;;1.23;;
49444;SDS011;35323;43.080;-81.378;2023-04-25T01:01:11;2.20;;;1.48;;
49444;SDS011;35323;43.080;-81.378;2023-04-25T01:03:39;2.67;;;2.00;;
49444;SDS011;35323;43.080;-81.378;2023-04-25T01:06:10;2.25;;;2.05;;
49444;SDS011;35323;43.080;-81.378;2023-04-25T01:08:38;2.28;;;2.08;;
49444;SDS011;35323;43.080;-81.378;2023-04-25T01:11:06;2.13;;;1.73;;
49444;SDS011;35323;43.080;-81.378;2023-04-25T01:13:34;5.30;;;2.25;;
49444;SDS011;35323;43.080;-81.378;2023-04-25T01:16:02;2.45;;;1.75;;
49444;SDS011;35323;43.080;-81.378;2023-04-25T01:18:30;2.38;;;2.17;;
49444;SDS011;35323;43.080;-81.378;2023-04-25T01:21:02;4.15;;;2.22;;
49444;SDS011;35323;43.080;-81.378;2023-04-25T01:23:35;2.88;;;2.40;;
49444;SDS011;35323;43.080;-81.378;2023-04-25T01:26:03;3.53;;;2.88;;
49444;SDS011;35323;43.080;-81.378;2023-04-25T01:28:31;3.90;;;3.38;;
49444;SDS011;35323;43.080;-81.378;2023-04-25T01:31:00;3.75;;;2.20;;
49444;SDS011;35323;43.080;-81.378;2023-04-25T01:33:28;4.65;;;2.80;;
49444;SDS011;35323;43.080;-81.378;2023-04-25T01:35:57;2.97;;;2.15;;
49444;SDS011;35323;43.080;-81.378;2023-04-25T01:38:24;2.25;;;2.05;;
49444;SDS011;35323;43.080;-81.378;2023-04-25T01:40:53;3.92;;;2.33;;
49444;SDS011;35323;43.080;-81.378;2023-04-25T01:43:22;2.22;;;2.00;;
49444;SDS011;35323;43.080;-81.378;2023-04-25T01:45:50;2.22;;;1.63;;
49444;SDS011;35323;43.080;-81.378;2023-04-25T01:48:18;1.73;;;1.63;;
49444;SDS011;35323;43.080;-81.378;2023-04-25T01:50:46;2.65;;;1.90;;
49444;SDS011;35323;43.080;-81.378;2023-04-25T01:53:13;2.92;;;2.33;;
49444;SDS011;35323;43.080;-81.378;2023-04-25T01:55:41;4.35;;;2.30;;
49444;SDS011;35323;43.080;-81.378;2023-04-25T01:58:09;2.35;;;1.77;;
49444;SDS011;35323;43.080;-81.378;2023-04-25T02:00:39;5.03;;;2.33;;
49444;SDS011;35323;43.080;-81.378;2023-04-25T02:03:07;2.58;;;2.38;;
49444;SDS011;35323;43.080;-81.378;2023-04-25T02:05:36;3.55;;;2.03;;
49444;SDS011;35323;43.080;-81.378;2023-04-25T02:08:07;2.20;;;1.90;;
49444;SDS011;35323;43.080;-81.378;2023-04-25T02:10:35;3.10;;;2.13;;
49444;SDS011;35323;43.080;-81.378;2023-04-25T02:13:03;3.53;;;1.75;;
49444;SDS011;35323;43.080;-81.378;2023-04-25T02:15:32;3.67;;;2.40;;
49444;SDS011;35323;43.080;-81.378;2023-04-25T02:18:00;2.53;;;2.33;;
49444;SDS011;35323;43.080;-81.378;2023-04-25T02:20:31;3.25;;;2.25;;
49444;SDS011;35323;43.080;-81.378;2023-04-25T02:22:58;2.58;;;2.38;;
49444;SDS011;35323;43.080;-81.378;2023-04-25T02:25:26;3.03;;;2.30;;
49444;SDS011;35323;43.080;-81.378;2023-04-25T02:27:53;2.72;;;2.47;;
49444;SDS011;35323;43.080;-81.378;2023-04-25T02:30:21;3.00;;;2.30;;
49444;SDS011;35323;43.080;-81.378;2023-04-25T02:32:49;4.82;;;2.33;;
49444;SDS011;35323;43.080;-81.378;2023-04-25T02:35:16;2.90;;;1.90;;
49444;SDS011;35323;43.080;-81.378;2023-04-25T02:37:44;5.90;;;3.35;;
49444;SDS011;35323;43.080;-81.378;2023-04-25T02:40:11;5.38;;;2.38;;
49444;SDS011;35323;43.080;-81.378;2023-04-25T02:42:39;2.95;;;1.73;;
49444;SDS011;35323;43.080;-81.378;2023-04-25T02:45:07;2.78;;;1.90;;
49444;SDS011;35323;43.080;-81.378;2023-04-25T02:47:34;3.53;;;3.00;;
49444;SDS011;35323;43.080;-81.378;2023-04-25T02:50:02;3.03;;;2.10;;
49444;SDS011;35323;43.080;-81.378;2023-04-25T02:52:30;3.33;;;2.40;;
49444;SDS011;35323;43.080;-81.378;2023-04-25T02:54:57;3.33;;;1.30;;
49444;SDS011;35323;43.080;-81.378;2023-04-25T02:57:25;3.42;;;2.92;;
49444;SDS011;35323;43.080;-81.378;2023-04-25T02:59:52;3.85;;;2.83;;
49444;SDS011;35323;43.080;-81.378;2023-04-25T03:02:20;5.75;;;2.28;;
49444;SDS011;35323;43.080;-81.378;2023-04-25T03:04:47;3.17;;;2.78;;
49444;SDS011;35323;43.080;-81.378;2023-04-25T03:07:15;3.33;;;2.97;;
49444;SDS011;35323;43.080;-81.378;2023-04-25T03:09:43;3.72;;;2.38;;
49444;SDS011;35323;43.080;-81.378;2023-04-25T03:12:10;3.60;;;3.30;;
49444;SDS011;35323;43.080;-81.378;2023-04-25T03:14:41;3.97;;;2.97;;
49444;SDS011;35323;43.080;-81.378;2023-04-25T03:17:08;4.38;;;3.97;;
49444;SDS011;35323;43.080;-81.378;2023-04-25T03:19:35;2.63;;;2.42;;
49444;SDS011;35323;43.080;-81.378;2023-04-25T03:22:03;5.57;;;3.50;;
49444;SDS011;35323;43.080;-81.378;2023-04-25T03:24:33;3.40;;;3.10;;
49444;SDS011;35323;43.080;-81.378;2023-04-25T03:27:01;4.70;;;3.63;;
49444;SDS011;35323;43.080;-81.378;2023-04-25T03:29:28;3.42;;;2.95;;
49444;SDS011;35323;43.080;-81.378;2023-04-25T03:31:57;4.43;;;3.55;;
49444;SDS011;35323;43.080;-81.378;2023-04-25T03:34:24;5.47;;;3.55;;
49444;SDS011;35323;43.080;-81.378;2023-04-25T03:36:53;3.85;;;2.83;;
49444;SDS011;35323;43.080;-81.378;2023-04-25T03:39:20;3.90;;;2.90;;
49444;SDS011;35323;43.080;-81.378;2023-04-25T03:41:48;3.17;;;2.88;;
49444;SDS011;35323;43.080;-81.378;2023-04-25T03:44:15;5.00;;;3.28;;
49444;SDS011;35323;43.080;-81.378;2023-04-25T03:46:43;5.18;;;3.33;;
49444;SDS011;35323;43.080;-81.378;2023-04-25T03:49:10;5.97;;;3.88;;
49444;SDS011;35323;43.080;-81.378;2023-04-25T03:51:38;4.05;;;3.33;;
49444;SDS011;35323;43.080;-81.378;2023-04-25T03:54:08;6.80;;;3.83;;
49444;SDS011;35323;43.080;-81.378;2023-04-25T03:56:35;6.72;;;4.22;;
49444;SDS011;35323;43.080;-81.378;2023-04-25T03:59:03;5.32;;;2.90;;
49444;SDS011;35323;43.080;-81.378;2023-04-25T04:01:30;6.95;;;3.88;;
49444;SDS011;35323;43.080;-81.378;2023-04-25T04:03:58;6.15;;;4.22;;
49444;SDS011;35323;43.080;-81.378;2023-04-25T04:06:26;4.88;;;3.08;;
49444;SDS011;35323;43.080;-81.378;2023-04-25T04:08:53;4.50;;;3.33;;
49444;SDS011;35323;43.080;-81.378;2023-04-25T04:11:21;4.72;;;3.13;;
49444;SDS011;35323;43.080;-81.378;2023-04-25T04:13:48;5.43;;;3.40;;
49444;SDS011;35323;43.080;-81.378;2023-04-25T04:16:16;4.30;;;3.92;;
49444;SDS011;35323;43.080;-81.378;2023-04-25T04:18:45;4.55;;;4.07;;
49444;SDS011;35323;43.080;-81.378;2023-04-25T04:21:15;4.00;;;3.63;;
49444;SDS011;35323;43.080;-81.378;2023-04-25T04:23:43;7.63;;;3.25;;
49444;SDS011;35323;43.080;-81.378;2023-04-25T04:26:10;5.75;;;3.50;;
49444;SDS011;35323;43.080;-81.378;2023-04-25T04:28:40;5.13;;;3.65;;
49444;SDS011;35323;43.080;-81.378;2023-04-25T04:31:07;4.68;;;3.75;;
49444;SDS011;35323;43.080;-81.378;2023-04-25T04:33:36;4.88;;;3.10;;
49444;SDS011;35323;43.080;-81.378;2023-04-25T04:36:04;6.40;;;3.28;;
49444;SDS011;35323;43.080;-81.378;2023-04-25T04:38:34;3.08;;;2.35;;
49444;SDS011;35323;43.080;-81.378;2023-04-25T04:41:07;4.68;;;2.90;;
49444;SDS011;35323;43.080;-81.378;2023-04-25T04:43:35;4.95;;;3.47;;
49444;SDS011;35323;43.080;-81.378;2023-04-25T04:46:03;6.38;;;4.15;;
49444;SDS011;35323;43.080;-81.378;2023-04-25T04:48:31;4.53;;;3.13;;
49444;SDS011;35323;43.080;-81.378;2023-04-25T04:51:02;4.57;;;2.17;;
49444;SDS011;35323;43.080;-81.378;2023-04-25T04:53:29;10.82;;;4.32;;
49444;SDS011;35323;43.080;-81.378;2023-04-25T04:55:57;5.88;;;3.45;;
49444;SDS011;35323;43.080;-81.378;2023-04-25T04:58:25;4.63;;;2.63;;
49444;SDS011;35323;43.080;-81.378;2023-04-25T05:00:52;6.95;;;4.05;;
49444;SDS011;35323;43.080;-81.378;2023-04-25T05:03:21;7.05;;;3.42;;
49444;SDS011;35323;43.080;-81.378;2023-04-25T05:05:48;8.10;;;3.88;;
49444;SDS011;35323;43.080;-81.378;2023-04-25T05:08:16;10.65;;;4.53;;
49444;SDS011;35323;43.080;-81.378;2023-04-25T05:10:43;6.10;;;3.72;;
49444;SDS011;35323;43.080;-81.378;2023-04-25T05:13:11;4.47;;;2.85;;
49444;SDS011;35323;43.080;-81.378;2023-04-25T05:15:39;6.15;;;3.75;;
49444;SDS011;35323;43.080;-81.378;2023-04-25T05:18:07;6.10;;;4.38;;
49444;SDS011;35323;43.080;-81.378;2023-04-25T05:20:34;5.57;;;3.40;;
49444;SDS011;35323;43.080;-81.378;2023-04-25T05:23:02;5.43;;;3.88;;
49444;SDS011;35323;43.080;-81.378;2023-04-25T05:25:29;3.70;;;2.58;;
49444;SDS011;35323;43.080;-81.378;2023-04-25T05:27:57;5.00;;;4.32;;
49444;SDS011;35323;43.080;-81.378;2023-04-25T05:30:25;4.47;;;4.03;;
49444;SDS011;35323;43.080;-81.378;2023-04-25T05:32:53;5.82;;;3.45;;
49444;SDS011;35323;43.080;-81.378;2023-04-25T05:35:20;3.28;;;2.97;;
49444;SDS011;35323;43.080;-81.378;2023-04-25T05:37:48;4.90;;;3.80;;
49444;SDS011;35323;43.080;-81.378;2023-04-25T05:40:15;7.32;;;4.30;;
49444;SDS011;35323;43.080;-81.378;2023-04-25T05:42:43;8.40;;;3.95;;
49444;SDS011;35323;43.080;-81.378;2023-04-25T05:45:10;5.18;;;3.65;;
49444;SDS011;35323;43.080;-81.378;2023-04-25T05:47:38;5.70;;;4.05;;
49444;SDS011;35323;43.080;-81.378;2023-04-25T05:50:06;3.97;;;3.65;;
49444;SDS011;35323;43.080;-81.378;2023-04-25T05:52:33;4.15;;;3.40;;
49444;SDS011;35323;43.080;-81.378;2023-04-25T05:55:01;5.00;;;3.55;;
49444;SDS011;35323;43.080;-81.378;2023-04-25T05:57:29;4.18;;;3.75;;
49444;SDS011;35323;43.080;-81.378;2023-04-25T05:59:57;3.53;;;3.17;;
49444;SDS011;35323;43.080;-81.378;2023-04-25T06:02:25;3.10;;;2.80;;
49444;SDS011;35323;43.080;-81.378;2023-04-25T06:04:53;4.70;;;3.15;;
49444;SDS011;35323;43.080;-81.378;2023-04-25T06:07:21;3.60;;;3.10;;
49444;SDS011;35323;43.080;-81.378;2023-04-25T06:09:49;4.90;;;3.70;;
49444;SDS011;35323;43.080;-81.378;2023-04-25T06:12:16;6.82;;;4.13;;
49444;SDS011;35323;43.080;-81.378;2023-04-25T06:14:44;6.03;;;4.03;;
49444;SDS011;35323;43.080;-81.378;2023-04-25T06:17:12;6.90;;;4.55;;
49444;SDS011;35323;43.080;-81.378;2023-04-25T06:19:40;5.85;;;4.03;;
49444;SDS011;35323;43.080;-81.378;2023-04-25T06:22:08;6.22;;;4.75;;
49444;SDS011;35323;43.080;-81.378;2023-04-25T06:24:35;4.53;;;4.13;;
49444;SDS011;35323;43.080;-81.378;2023-04-25T06:27:03;4.22;;;3.50;;
49444;SDS011;35323;43.080;-81.378;2023-04-25T06:29:30;7.80;;;4.32;;
49444;SDS011;35323;43.080;-81.378;2023-04-25T06:31:58;4.13;;;3.25;;
49444;SDS011;35323;43.080;-81.378;2023-04-25T06:34:26;3.95;;;3.28;;
49444;SDS011;35323;43.080;-81.378;2023-04-25T06:36:53;3.28;;;2.95;;
49444;SDS011;35323;43.080;-81.378;2023-04-25T06:39:21;4.43;;;2.85;;
49444;SDS011;35323;43.080;-81.378;2023-04-25T06:41:50;4.13;;;3.20;;
49444;SDS011;35323;43.080;-81.378;2023-04-25T06:44:18;4.05;;;2.90;;
49444;SDS011;35323;43.080;-81.378;2023-04-25T06:46:45;3.90;;;3.20;;
49444;SDS011;35323;43.080;-81.378;2023-04-25T06:49:13;4.13;;;3.83;;
49444;SDS011;35323;43.080;-81.378;2023-04-25T06:51:40;2.97;;;2.50;;
49444;SDS011;35323;43.080;-81.378;2023-04-25T06:54:08;2.85;;;2.05;;
49444;SDS011;35323;43.080;-81.378;2023-04-25T06:56:39;5.65;;;2.88;;
49444;SDS011;35323;43.080;-81.378;2023-04-25T06:59:07;4.22;;;2.92;;
49444;SDS011;35323;43.080;-81.378;2023-04-25T07:01:35;5.50;;;3.53;;
49444;SDS011;35323;43.080;-81.378;2023-04-25T07:04:02;6.25;;;3.53;;
49444;SDS011;35323;43.080;-81.378;2023-04-25T07:06:30;3.40;;;2.80;;
49444;SDS011;35323;43.080;-81.378;2023-04-25T07:08:58;2.58;;;2.20;;
49444;SDS011;35323;43.080;-81.378;2023-04-25T07:11:25;5.85;;;3.50;;
49444;SDS011;35323;43.080;-81.378;2023-04-25T07:13:55;3.33;;;2.95;;
49444;SDS011;35323;43.080;-81.378;2023-04-25T07:16:22;4.57;;;3.55;;
49444;SDS011;35323;43.080;-81.378;2023-04-25T07:18:50;4.05;;;3.58;;
49444;SDS011;35323;43.080;-81.378;2023-04-25T07:21:21;5.57;;;4.78;;
49444;SDS011;35323;43.080;-81.378;2023-04-25T07:23:48;4.28;;;3.17;;
49444;SDS011;35323;43.080;-81.378;2023-04-25T07:26:16;3.40;;;3.08;;
49444;SDS011;35323;43.080;-81.378;2023-04-25T07:28:44;5.38;;;3.25;;
49444;SDS011;35323;43.080;-81.378;2023-04-25T07:31:15;4.38;;;3.75;;
49444;SDS011;35323;43.080;-81.378;2023-04-25T07:33:44;6.97;;;3.45;;
49444;SDS011;35323;43.080;-81.378;2023-04-25T07:36:14;5.97;;;3.92;;
49444;SDS011;35323;43.080;-81.378;2023-04-25T07:38:42;4.78;;;2.88;;
49444;SDS011;35323;43.080;-81.378;2023-04-25T07:41:10;6.82;;;4.35;;
49444;SDS011;35323;43.080;-81.378;2023-04-25T07:43:41;4.72;;;3.80;;
49444;SDS011;35323;43.080;-81.378;2023-04-25T07:46:08;2.88;;;2.67;;
49444;SDS011;35323;43.080;-81.378;2023-04-25T07:48:36;7.30;;;3.47;;
49444;SDS011;35323;43.080;-81.378;2023-04-25T07:51:03;7.60;;;3.95;;
49444;SDS011;35323;43.080;-81.378;2023-04-25T07:53:32;3.95;;;2.97;;
49444;SDS011;35323;43.080;-81.378;2023-04-25T07:56:01;3.25;;;3.03;;
49444;SDS011;35323;43.080;-81.378;2023-04-25T07:58:32;3.85;;;3.03;;
49444;SDS011;35323;43.080;-81.378;2023-04-25T08:00:59;4.93;;;4.13;;
49444;SDS011;35323;43.080;-81.378;2023-04-25T08:03:27;5.45;;;4.32;;
49444;SDS011;35323;43.080;-81.378;2023-04-25T08:05:55;3.30;;;3.00;;
49444;SDS011;35323;43.080;-81.378;2023-04-25T08:08:23;6.18;;;3.80;;
49444;SDS011;35323;43.080;-81.378;2023-04-25T08:10:50;4.28;;;3.53;;
49444;SDS011;35323;43.080;-81.378;2023-04-25T08:13:18;4.07;;;3.67;;
49444;SDS011;35323;43.080;-81.378;2023-04-25T08:15:45;6.45;;;3.85;;
49444;SDS011;35323;43.080;-81.378;2023-04-25T08:18:13;5.90;;;3.60;;
49444;SDS011;35323;43.080;-81.378;2023-04-25T08:20:43;5.78;;;3.83;;
49444;SDS011;35323;43.080;-81.378;2023-04-25T08:23:13;4.18;;;3.33;;
49444;SDS011;35323;43.080;-81.378;2023-04-25T08:25:41;4.28;;;3.70;;
49444;SDS011;35323;43.080;-81.378;2023-04-25T08:28:08;5.43;;;3.70;;
49444;SDS011;35323;43.080;-81.378;2023-04-25T08:30:37;3.42;;;2.53;;
49444;SDS011;35323;43.080;-81.378;2023-04-25T08:33:04;6.65;;;4.40;;
49444;SDS011;35323;43.080;-81.378;2023-04-25T08:35:32;5.63;;;3.60;;
49444;SDS011;35323;43.080;-81.378;2023-04-25T08:38:00;5.90;;;4.20;;
49444;SDS011;35323;43.080;-81.378;2023-04-25T08:40:28;5.60;;;4.45;;
49444;SDS011;35323;43.080;-81.378;2023-04-25T08:42:57;5.85;;;4.10;;
49444;SDS011;35323;43.080;-81.378;2023-04-25T08:45:26;3.75;;;2.70;;
49444;SDS011;35323;43.080;-81.378;2023-04-25T08:47:54;6.10;;;4.05;;
49444;SDS011;35323;43.080;-81.378;2023-04-25T08:50:24;3.55;;;2.70;;
49444;SDS011;35323;43.080;-81.378;2023-04-25T08:52:53;5.57;;;4.78;;
49444;SDS011;35323;43.080;-81.378;2023-04-25T08:55:21;5.07;;;3.83;;
49444;SDS011;35323;43.080;-81.378;2023-04-25T08:57:49;7.10;;;4.85;;
49444;SDS011;35323;43.080;-81.378;2023-04-25T09:00:17;6.60;;;4.70;;
49444;SDS011;35323;43.080;-81.378;2023-04-25T09:02:46;5.40;;;4.10;;
49444;SDS011;35323;43.080;-81.378;2023-04-25T09:05:14;6.47;;;3.95;;
49444;SDS011;35323;43.080;-81.378;2023-04-25T09:07:45;5.47;;;3.50;;
49444;SDS011;35323;43.080;-81.378;2023-04-25T09:10:15;5.35;;;4.85;;
49444;SDS011;35323;43.080;-81.378;2023-04-25T09:12:43;4.65;;;3.63;;
49444;SDS011;35323;43.080;-81.378;2023-04-25T09:15:11;4.40;;;3.33;;
49444;SDS011;35323;43.080;-81.378;2023-04-25T09:17:54;4.55;;;4.10;;
49444;SDS011;35323;43.080;-81.378;2023-04-25T09:20:22;7.68;;;5.30;;
49444;SDS011;35323;43.080;-81.378;2023-04-25T09:22:50;7.78;;;5.15;;
49444;SDS011;35323;43.080;-81.378;2023-04-25T09:25:33;8.82;;;5.57;;
49444;SDS011;35323;43.080;-81.378;2023-04-25T09:28:03;6.25;;;4.57;;
49444;SDS011;35323;43.080;-81.378;2023-04-25T09:30:31;5.93;;;5.28;;
49444;SDS011;35323;43.080;-81.378;2023-04-25T09:33:06;8.90;;;5.00;;
49444;SDS011;35323;43.080;-81.378;2023-04-25T09:35:35;8.68;;;5.18;;
49444;SDS011;35323;43.080;-81.378;2023-04-25T09:38:08;6.82;;;5.57;;
49444;SDS011;35323;43.080;-81.378;2023-04-25T09:40:40;4.95;;;4.05;;
49444;SDS011;35323;43.080;-81.378;2023-04-25T09:43:20;6.30;;;4.40;;
49444;SDS011;35323;43.080;-81.378;2023-04-25T09:45:48;4.82;;;4.32;;
49444;SDS011;35323;43.080;-81.378;2023-04-25T09:48:17;4.93;;;3.63;;
49444;SDS011;35323;43.080;-81.378;2023-04-25T09:50:50;6.80;;;4.85;;
49444;SDS011;35323;43.080;-81.378;2023-04-25T09:53:31;9.30;;;5.20;;
49444;SDS011;35323;43.080;-81.378;2023-04-25T09:55:59;5.45;;;4.72;;
49444;SDS011;35323;43.080;-81.378;2023-04-25T09:58:28;7.05;;;4.40;;
49444;SDS011;35323;43.080;-81.378;2023-04-25T10:01:00;6.97;;;4.40;;
49444;SDS011;35323;43.080;-81.378;2023-04-25T10:03:32;13.80;;;5.07;;
49444;SDS011;35323;43.080;-81.378;2023-04-25T10:06:08;5.90;;;5.32;;
49444;SDS011;35323;43.080;-81.378;2023-04-25T10:08:38;6.43;;;5.30;;
49444;SDS011;35323;43.080;-81.378;2023-04-25T10:11:07;7.68;;;5.32;;
49444;SDS011;35323;43.080;-81.378;2023-04-25T10:13:35;8.35;;;5.63;;
49444;SDS011;35323;43.080;-81.378;2023-04-25T10:16:03;5.05;;;3.85;;
49444;SDS011;35323;43.080;-81.378;2023-04-25T10:18:32;6.10;;;4.75;;
49444;SDS011;35323;43.080;-81.378;2023-04-25T10:21:00;10.27;;;6.28;;
49444;SDS011;35323;43.080;-81.378;2023-04-25T10:23:29;8.45;;;5.85;;
49444;SDS011;35323;43.080;-81.378;2023-04-25T10:25:57;12.23;;;6.20;;
49444;SDS011;35323;43.080;-81.378;2023-04-25T10:28:25;10.35;;;5.30;;
49444;SDS011;35323;43.080;-81.378;2023-04-25T10:31:11;6.47;;;4.57;;
49444;SDS011;35323;43.080;-81.378;2023-04-25T10:33:43;8.65;;;5.65;;
49444;SDS011;35323;43.080;-81.378;2023-04-25T10:36:14;9.75;;;6.18;;
49444;SDS011;35323;43.080;-81.378;2023-04-25T10:38:43;13.40;;;7.18;;
49444;SDS011;35323;43.080;-81.378;2023-04-25T10:41:11;12.60;;;6.85;;
49444;SDS011;35323;43.080;-81.378;2023-04-25T10:43:42;17.17;;;7.13;;
49444;SDS011;35323;43.080;-81.378;2023-04-25T10:48:51;11.88;;;6.13;;
49444;SDS011;35323;43.080;-81.378;2023-04-25T10:51:29;9.52;;;5.20;;
49444;SDS011;35323;43.080;-81.378;2023-04-25T10:54:18;5.57;;;4.78;;
49444;SDS011;35323;43.080;-81.378;2023-04-25T10:56:48;12.05;;;5.95;;
49444;SDS011;35323;43.080;-81.378;2023-04-25T10:59:16;6.05;;;5.35;;
49444;SDS011;35323;43.080;-81.378;2023-04-25T11:01:45;8.48;;;5.05;;
49444;SDS011;35323;43.080;-81.378;2023-04-25T11:04:23;9.18;;;6.40;;
49444;SDS011;35323;43.080;-81.378;2023-04-25T11:06:55;8.30;;;5.07;;
49444;SDS011;35323;43.080;-81.378;2023-04-25T11:09:45;15.52;;;7.78;;
49444;SDS011;35323;43.080;-81.378;2023-04-25T11:12:13;7.72;;;5.78;;
49444;SDS011;35323;43.080;-81.378;2023-04-25T11:14:40;6.25;;;4.68;;
49444;SDS011;35323;43.080;-81.378;2023-04-25T11:17:08;8.60;;;7.22;;
49444;SDS011;35323;43.080;-81.378;2023-04-25T11:19:37;9.98;;;7.18;;
49444;SDS011;35323;43.080;-81.378;2023-04-25T11:22:05;7.55;;;6.20;;
49444;SDS011;35323;43.080;-81.378;2023-04-25T11:24:34;10.05;;;7.25;;
49444;SDS011;35323;43.080;-81.378;2023-04-25T11:27:05;21.50;;;7.50;;
49444;SDS011;35323;43.080;-81.378;2023-04-25T11:29:35;14.07;;;6.70;;
49444;SDS011;35323;43.080;-81.378;2023-04-25T11:32:03;12.55;;;6.65;;
49444;SDS011;35323;43.080;-81.378;2023-04-25T11:34:31;13.82;;;8.63;;
49444;SDS011;35323;43.080;-81.378;2023-04-25T11:37:00;19.90;;;10.73;;
49444;SDS011;35323;43.080;-81.378;2023-04-25T11:39:29;18.65;;;6.95;;
49444;SDS011;35323;43.080;-81.378;2023-04-25T11:41:57;13.05;;;8.40;;
49444;SDS011;35323;43.080;-81.378;2023-04-25T11:44:27;17.05;;;8.90;;
49444;SDS011;35323;43.080;-81.378;2023-04-25T11:46:58;15.43;;;8.35;;
49444;SDS011;35323;43.080;-81.378;2023-04-25T11:49:30;7.38;;;5.95;;
49444;SDS011;35323;43.080;-81.378;2023-04-25T11:51:58;10.90;;;6.82;;
49444;SDS011;35323;43.080;-81.378;2023-04-25T11:54:27;15.85;;;10.60;;
49444;SDS011;35323;43.080;-81.378;2023-04-25T11:56:55;9.13;;;5.97;;
49444;SDS011;35323;43.080;-81.378;2023-04-25T11:59:23;14.07;;;6.63;;
49444;SDS011;35323;43.080;-81.378;2023-04-25T12:01:52;5.75;;;5.22;;
49444;SDS011;35323;43.080;-81.378;2023-04-25T12:04:20;10.63;;;6.53;;
49444;SDS011;35323;43.080;-81.378;2023-04-25T12:06:52;13.50;;;6.20;;
49444;SDS011;35323;43.080;-81.378;2023-04-25T12:09:21;8.73;;;5.95;;
49444;SDS011;35323;43.080;-81.378;2023-04-25T12:11:58;9.85;;;5.95;;
49444;SDS011;35323;43.080;-81.378;2023-04-25T12:14:29;8.50;;;5.47;;
49444;SDS011;35323;43.080;-81.378;2023-04-25T12:16:59;10.88;;;6.28;;
49444;SDS011;35323;43.080;-81.378;2023-04-25T12:19:34;8.55;;;5.03;;
49444;SDS011;35323;43.080;-81.378;2023-04-25T12:22:02;6.90;;;4.50;;
49444;SDS011;35323;43.080;-81.378;2023-04-25T12:24:32;6.20;;;4.63;;
49444;SDS011;35323;43.080;-81.378;2023-04-25T12:27:05;10.45;;;4.53;;
49444;SDS011;35323;43.080;-81.378;2023-04-25T12:29:33;6.68;;;4.90;;
49444;SDS011;35323;43.080;-81.378;2023-04-25T12:32:15;12.27;;;6.20;;
49444;SDS011;35323;43.080;-81.378;2023-04-25T12:34:43;9.57;;;5.57;;
49444;SDS011;35323;43.080;-81.378;2023-04-25T12:37:10;8.27;;;4.68;;
49444;SDS011;35323;43.080;-81.378;2023-04-25T12:39:38;11.20;;;4.43;;
49444;SDS011;35323;43.080;-81.378;2023-04-25T12:42:06;12.57;;;3.95;;
49444;SDS011;35323;43.080;-81.378;2023-04-25T12:44:40;4.57;;;2.63;;
49444;SDS011;35323;43.080;-81.378;2023-04-25T12:47:08;5.03;;;2.97;;
49444;SDS011;35323;43.080;-81.378;2023-04-25T12:49:36;5.15;;;4.05;;
49444;SDS011;35323;43.080;-81.378;2023-04-25T12:52:03;6.15;;;3.83;;
49444;SDS011;35323;43.080;-81.378;2023-04-25T12:54:31;7.03;;;5.68;;
49444;SDS011;35323;43.080;-81.378;2023-04-25T12:56:59;5.32;;;4.00;;
49444;SDS011;35323;43.080;-81.378;2023-04-25T12:59:28;6.13;;;4.03;;
49444;SDS011;35323;43.080;-81.378;2023-04-25T13:01:56;5.50;;;3.35;;
49444;SDS011;35323;43.080;-81.378;2023-04-25T13:04:26;10.57;;;4.15;;
49444;SDS011;35323;43.080;-81.378;2023-04-25T13:06:54;10.90;;;4.45;;
49444;SDS011;35323;43.080;-81.378;2023-04-25T13:09:22;6.75;;;3.88;;
49444;SDS011;35323;43.080;-81.378;2023-04-25T13:11:49;4.10;;;2.90;;
49444;SDS011;35323;43.080;-81.378;2023-04-25T13:14:21;5.80;;;4.30;;
49444;SDS011;35323;43.080;-81.378;2023-04-25T13:16:48;3.83;;;2.80;;
49444;SDS011;35323;43.080;-81.378;2023-04-25T13:19:16;2.72;;;2.42;;
49444;SDS011;35323;43.080;-81.378;2023-04-25T13:21:44;2.80;;;2.17;;
49444;SDS011;35323;43.080;-81.378;2023-04-25T13:24:11;3.35;;;3.00;;
49444;SDS011;35323;43.080;-81.378;2023-04-25T13:26:39;5.38;;;2.97;;
49444;SDS011;35323;43.080;-81.378;2023-04-25T13:29:07;5.05;;;2.88;;
49444;SDS011;35323;43.080;-81.378;2023-04-25T13:31:35;5.05;;;3.20;;
49444;SDS011;35323;43.080;-81.378;2023-04-25T13:34:02;3.00;;;2.63;;
49444;SDS011;35323;43.080;-81.378;2023-04-25T13:36:30;10.68;;;4.38;;
49444;SDS011;35323;43.080;-81.378;2023-04-25T13:38:59;3.90;;;2.42;;
49444;SDS011;35323;43.080;-81.378;2023-04-25T13:41:26;6.25;;;3.00;;
49444;SDS011;35323;43.080;-81.378;2023-04-25T13:43:55;3.53;;;3.22;;
49444;SDS011;35323;43.080;-81.378;2023-04-25T13:46:25;4.53;;;3.85;;
49444;SDS011;35323;43.080;-81.378;2023-04-25T13:49:11;15.52;;;3.58;;
49444;SDS011;35323;43.080;-81.378;2023-04-25T13:51:39;7.75;;;3.22;;
49444;SDS011;35323;43.080;-81.378;2023-04-25T13:54:08;2.60;;;1.67;;
49444;SDS011;35323;43.080;-81.378;2023-04-25T13:56:35;7.20;;;3.90;;
49444;SDS011;35323;43.080;-81.378;2023-04-25T13:59:03;6.90;;;3.97;;
49444;SDS011;35323;43.080;-81.378;2023-04-25T14:01:30;5.20;;;3.10;;
49444;SDS011;35323;43.080;-81.378;2023-04-25T14:04:01;8.10;;;6.40;;
49444;SDS011;35323;43.080;-81.378;2023-04-25T14:06:31;2.92;;;2.60;;
49444;SDS011;35323;43.080;-81.378;2023-04-25T14:08:58;5.68;;;2.45;;
49444;SDS011;35323;43.080;-81.378;2023-04-25T14:11:28;5.18;;;2.60;;
49444;SDS011;35323;43.080;-81.378;2023-04-25T14:13:55;3.40;;;2.22;;
49444;SDS011;35323;43.080;-81.378;2023-04-25T14:16:26;4.65;;;3.10;;
49444;SDS011;35323;43.080;-81.378;2023-04-25T14:18:53;2.45;;;2.15;;
49444;SDS011;35323;43.080;-81.378;2023-04-25T14:21:21;3.42;;;2.35;;
49444;SDS011;35323;43.080;-81.378;2023-04-25T14:23:49;3.45;;;1.80;;
49444;SDS011;35323;43.080;-81.378;2023-04-25T14:26:17;3.03;;;2.53;;
49444;SDS011;35323;43.080;-81.378;2023-04-25T14:28:45;5.07;;;2.38;;
49444;SDS011;35323;43.080;-81.378;2023-04-25T14:31:13;11.88;;;2.58;;
49444;SDS011;35323;43.080;-81.378;2023-04-25T14:33:42;3.20;;;2.72;;